Time;durP1;ratioP1;P1;durP2;ratioP2;P2;SDS_P1;SDS_P2;PMS_P1;PMS_P2;Temp;Humidity;BMP_temperature;BMP_pressure;BME280_temperature;BME280_humidity;BME280_pressure;Samples;Min_cycle;Max_cycle;Signal;HPM_P1;HPM_P2
2022/04/17 00:00:55;;;;;;;12.70;7.30;;;;;;;13.30;52.44;98316.84;4996082;28;20207;-88
2022/04/17 00:03:24;;;;;;;11.03;7.10;;;;;;;13.97;52.73;98478.09;4995714;28;20183;-88
2022/04/17 00:05:52;;;;;;;12.13;7.30;;;;;;;15.51;53.21;98711.38;4996710;28;20160;-88
2022/04/17 00:08:17;;;;;;;11.17;7.67;;;;;;;12.82;53.17;98267.78;4994594;28;20550;-89
2022/04/17 00:10:47;;;;;;;12.27;7.10;;;;;;;15.84;53.59;98785.81;4994643;28;20183;-87
2022/04/17 00:13:14;;;;;;;10.97;6.93;;;;;;;15.28;53.36;98722.09;4993482;28;20171;-88
2022/04/17 00:15:39;;;;;;;13.00;7.27;;;;;;;14.89;53.25;98634.00;4994085;28;20255;-89
2022/04/17 00:18:06;;;;;;;9.47;6.80;;;;;;;14.68;52.75;98604.81;4995554;28;20183;-87
2022/04/17 00:20:32;;;;;;;12.23;6.97;;;;;;;14.68;52.30;98584.44;4996127;28;20159;-88
2022/04/17 00:22:58;;;;;;;14.20;7.10;;;;;;;14.88;51.86;98632.28;5006804;28;20690;-87
2022/04/17 00:25:23;;;;;;;13.93;7.00;;;;;;;15.04;51.74;98629.97;5003747;28;20223;-88
2022/04/17 00:27:48;;;;;;;9.60;6.50;;;;;;;14.88;51.24;98602.56;4998373;28;20679;-87
2022/04/17 00:30:14;;;;;;;11.50;6.50;;;;;;;14.56;51.38;98548.59;4996794;28;20199;-87
2022/04/17 00:32:39;;;;;;;10.17;6.80;;;;;;;17.05;51.20;98956.78;4994812;28;20167;-89
2022/04/17 00:35:07;;;;;;;11.73;6.63;;;;;;;13.99;52.38;98456.06;4993913;28;20537;-89
2022/04/17 00:37:33;;;;;;;10.67;7.47;;;;;;;13.90;56.63;98611.16;4993652;28;20178;-89
2022/04/17 00:39:59;;;;;;;14.67;7.73;;;;;;;13.00;58.40;98484.00;4993774;28;20164;-88
2022/04/17 00:42:24;;;;;;;12.60;7.23;;;;;;;13.36;58.40;98543.19;4994790;28;20511;-89
2022/04/17 00:44:50;;;;;;;12.47;7.43;;;;;;;13.62;59.30;98596.22;4993490;28;20218;-88
2022/04/17 00:47:18;;;;;;;12.13;7.37;;;;;;;12.73;59.98;98466.53;4995384;28;20160;-88
2022/04/17 00:49:45;;;;;;;11.63;7.57;;;;;;;12.31;59.71;98359.91;4993863;28;20199;-88
2022/04/17 00:52:12;;;;;;;12.40;7.97;;;;;;;12.50;60.21;98403.44;4996056;28;20226;-87
2022/04/17 00:54:43;;;;;;;14.67;8.20;;;;;;;13.38;60.71;98566.06;4997613;28;20243;-88
2022/04/17 00:57:11;;;;;;;13.73;8.50;;;;;;;13.62;61.63;98622.50;4996006;28;21067;-88
2022/04/17 00:59:37;;;;;;;13.60;9.07;;;;;;;13.25;60.92;98539.59;4993487;28;20218;-89
2022/04/17 01:02:06;;;;;;;13.33;9.10;;;;;;;13.49;62.75;98615.44;4993263;28;20167;-88
2022/04/17 01:04:32;;;;;;;14.50;9.47;;;;;;;14.03;63.25;98730.16;4995578;28;20225;-88
2022/04/17 01:06:57;;;;;;;15.83;9.60;;;;;;;13.48;63.13;98642.59;4994082;28;20164;-88
2022/04/17 01:09:23;;;;;;;17.30;10.00;;;;;;;12.16;63.18;98395.13;4992970;28;20206;-88
2022/04/17 01:11:48;;;;;;;15.77;10.00;;;;;;;12.19;62.67;98385.06;4993469;28;20171;-88
2022/04/17 01:14:14;;;;;;;14.30;10.37;;;;;;;12.09;63.71;98403.41;4992784;28;20174;-88
2022/04/17 01:16:39;;;;;;;16.13;10.30;;;;;;;12.76;62.82;98486.06;4992646;28;20176;-89
2022/04/17 01:19:15;;;;;;;15.30;9.90;;;;;;;14.80;62.92;98822.44;4994091;28;20639;-88
2022/04/17 01:21:43;;;;;;;17.23;10.50;;;;;;;13.25;62.08;98537.03;4994104;28;20182;-87
2022/04/17 01:26:57;;;;;;;13.57;10.07;;;;;;;13.81;61.84;98581.31;4994684;28;20259;-88
2022/04/17 01:29:30;;;;;;;16.40;10.30;;;;;;;15.85;61.92;98930.44;4993628;28;20194;-89
2022/04/17 01:31:56;;;;;;;16.63;9.70;;;;;;;14.66;62.32;98727.91;4993784;28;20222;-88
2022/04/17 01:34:23;;;;;;;14.93;10.40;;;;;;;14.57;62.41;98728.63;4994024;28;20167;-88
2022/04/17 01:36:49;;;;;;;18.33;10.53;;;;;;;13.11;61.29;98490.16;4992260;28;20183;-88
2022/04/17 01:39:16;;;;;;;13.53;9.73;;;;;;;14.49;61.71;98716.59;4992877;28;20171;-89
2022/04/17 01:41:42;;;;;;;14.60;10.13;;;;;;;13.66;61.02;98549.66;4993288;28;20206;-88
2022/04/17 01:44:08;;;;;;;15.03;10.50;;;;;;;12.95;61.42;98450.03;4994157;28;20178;-89
2022/04/17 01:46:34;;;;;;;15.00;10.03;;;;;;;13.01;61.07;98427.28;4995658;28;20198;-88
2022/04/17 01:49:00;;;;;;;16.13;10.37;;;;;;;11.96;60.02;98248.41;4995445;28;20195;-88
2022/04/17 01:51:25;;;;;;;15.07;10.53;;;;;;;13.68;60.14;98545.47;4995091;28;20190;-88
2022/04/17 01:53:51;;;;;;;15.17;10.70;;;;;;;13.40;60.69;98504.28;4997004;28;20725;-87
2022/04/17 01:56:16;;;;;;;14.90;10.20;;;;;;;16.01;59.60;98962.19;4998051;28;20564;-88
2022/04/17 01:58:42;;;;;;;15.97;10.67;;;;;;;12.32;59.06;98325.25;4996420;28;20548;-89
2022/04/17 02:01:08;;;;;;;13.50;10.30;;;;;;;15.99;59.42;98918.75;5005871;28;20186;-88
2022/04/17 02:03:33;;;;;;;38.13;11.67;;;;;;;15.87;60.40;98909.25;5013336;28;20206;-89
2022/04/17 02:06:00;;;;;;;40.40;11.60;;;;;;;13.39;59.95;98494.06;4999257;28;20183;-88
2022/04/17 02:08:28;;;;;;;13.77;9.97;;;;;;;12.93;59.24;98403.44;4995922;28;20179;-89
2022/04/17 02:10:53;;;;;;;17.53;10.27;;;;;;;11.64;58.74;98199.59;4994985;28;20214;-88
2022/04/17 02:13:18;;;;;;;14.63;9.93;;;;;;;12.50;58.55;98327.28;4996801;28;20180;-89
2022/04/17 02:15:44;;;;;;;13.90;10.07;;;;;;;12.75;58.41;98353.13;4998416;28;20218;-87
2022/04/17 02:18:11;;;;;;;14.93;10.57;;;;;;;13.60;59.52;98530.91;4996474;28;20171;-87
2022/04/17 02:20:37;;;;;;;17.43;10.30;;;;;;;13.71;60.15;98530.22;4997369;28;20155;-87
2022/04/17 02:23:02;;;;;;;14.97;10.13;;;;;;;14.59;60.32;98698.94;4996423;28;20179;-88
2022/04/17 02:25:28;;;;;;;16.23;10.23;;;;;;;14.70;58.36;98694.88;4995411;28;20301;-88
2022/04/17 02:27:53;;;;;;;15.60;9.77;;;;;;;14.51;58.04;98697.94;4998407;28;20206;-88
2022/04/17 02:30:19;;;;;;;12.93;9.10;;;;;;;11.62;57.57;98191.94;4996661;28;20575;-88
2022/04/17 02:32:45;;;;;;;17.23;9.53;;;;;;;12.34;57.90;98337.13;4997148;28;20159;-88
2022/04/17 02:35:11;;;;;;;11.57;9.23;;;;;;;14.11;57.89;98619.16;4995769;28;20226;-89
2022/04/17 02:37:37;;;;;;;13.33;9.43;;;;;;;14.15;56.93;98624.31;4995089;28;20643;-88
2022/04/17 02:40:03;;;;;;;14.57;9.93;;;;;;;12.66;59.01;98375.81;4992185;28;20174;-88
2022/04/17 02:42:28;;;;;;;15.60;9.93;;;;;;;12.54;58.51;98347.69;4993464;28;20658;-89
2022/04/17 02:44:54;;;;;;;11.80;9.03;;;;;;;15.02;56.87;98773.53;4997135;28;20171;-88
2022/04/17 02:50:07;;;;;;;13.80;9.33;;;;;;;12.73;57.32;98440.28;4993739;28;20206;-89
2022/04/17 02:52:32;;;;;;;13.43;9.67;;;;;;;15.00;57.84;98801.53;4997214;28;20174;-89
2022/04/17 02:54:58;;;;;;;11.77;8.57;;;;;;;13.62;58.15;98522.47;4984274;28;20172;-88
2022/04/17 02:57:23;;;;;;;16.47;10.60;;;;;;;15.93;57.42;98945.03;4997514;28;20239;-87
2022/04/17 02:59:48;;;;;;;15.07;10.40;;;;;;;12.87;57.05;98383.00;4991648;28;20254;-86
2022/04/17 03:07:42;;;;;;;12.10;8.40;;;;;;;14.56;55.32;98663.22;4993424;28;20658;-88
2022/04/17 03:10:07;;;;;;;13.63;9.23;;;;;;;14.68;56.02;98686.34;4994921;28;20226;-86
2022/04/17 03:12:36;;;;;;;13.37;9.33;;;;;;;13.95;55.83;98556.09;4996376;28;20175;-87
2022/04/17 03:15:02;;;;;;;14.37;8.77;;;;;;;15.06;56.63;98748.09;4991581;28;20171;-87
2022/04/17 03:17:28;;;;;;;10.87;8.60;;;;;;;14.38;56.45;98639.16;4994818;28;20169;-88
2022/04/17 03:19:53;;;;;;;10.73;7.83;;;;;;;13.65;54.80;98545.41;4993513;28;20182;-87
2022/04/17 03:22:22;;;;;;;10.77;7.90;;;;;;;13.16;55.04;98435.19;4993443;28;20199;-86
2022/04/17 03:24:47;;;;;;;13.10;8.10;;;;;;;13.31;55.15;98493.94;4993987;28;20574;-89
2022/04/17 03:27:13;;;;;;;18.10;8.50;;;;;;;13.31;55.64;98473.63;4998858;28;20172;-87
2022/04/17 03:29:38;;;;;;;12.23;7.87;;;;;;;13.17;55.34;98459.78;5001557;28;20302;-86
2022/04/17 03:32:04;;;;;;;11.83;7.93;;;;;;;14.13;55.48;98631.06;4996849;28;20171;-87
2022/04/17 03:34:29;;;;;;;9.67;7.20;;;;;;;12.67;54.70;98369.91;4986796;28;20202;-89
2022/04/17 03:36:58;;;;;;;12.63;7.57;;;;;;;13.82;55.73;98559.25;4988397;28;20185;-87
2022/04/17 03:39:24;;;;;;;10.70;7.17;;;;;;;14.48;55.02;98722.50;4986461;28;20203;-86
2022/04/17 03:41:50;;;;;;;12.37;7.43;;;;;;;13.24;55.44;98525.16;4983716;28;20175;-87
2022/04/17 03:44:16;;;;;;;14.57;8.07;;;;;;;15.78;55.29;98949.06;4993551;28;20168;-87
2022/04/17 03:46:41;;;;;;;10.67;6.67;;;;;;;12.89;56.29;98483.78;4993735;28;20178;-87
2022/04/17 03:49:08;;;;;;;11.97;6.80;;;;;;;15.41;57.05;98911.84;4995426;28;20191;-88
2022/04/17 03:51:33;;;;;;;8.60;6.10;;;;;;;14.56;58.75;98794.81;4985069;28;20266;-88
2022/04/17 03:53:58;;;;;;;11.47;6.70;;;;;;;13.24;59.19;98578.53;5002175;28;20257;-88
2022/04/17 03:56:24;;;;;;;13.83;6.90;;;;;;;14.13;60.68;98754.94;5001450;28;20624;-88
2022/04/17 03:58:49;;;;;;;9.77;7.17;;;;;;;12.88;61.82;98563.34;4993814;28;20170;-87
2022/04/17 04:01:15;;;;;;;10.53;7.10;;;;;;;14.43;63.80;98829.38;4999257;28;20168;-88
2022/04/17 04:03:40;;;;;;;10.13;7.30;;;;;;;13.27;65.71;98636.19;4993978;28;20183;-86
2022/04/17 04:06:06;;;;;;;11.33;7.63;;;;;;;13.35;66.79;98638.06;4994437;28;20175;-88
2022/04/17 04:08:31;;;;;;;11.87;7.83;;;;;;;14.31;68.84;98826.56;4999465;28;20175;-87
2022/04/17 04:10:56;;;;;;;13.23;9.20;;;;;;;12.84;70.94;98624.22;4988508;28;20181;-87
2022/04/17 04:13:22;;;;;;;11.20;8.17;;;;;;;12.99;74.10;98662.69;4985824;28;20175;-88
2022/04/17 04:15:47;;;;;;;13.00;8.77;;;;;;;12.33;77.97;98568.88;4984614;28;20176;-87
2022/04/17 04:18:13;;;;;;;11.73;9.07;;;;;;;11.76;82.28;98483.81;4985329;28;20191;-87
2022/04/17 04:20:38;;;;;;;11.27;9.17;;;;;;;12.08;83.31;98543.78;4994723;28;20159;-87
2022/04/17 04:23:04;;;;;;;14.13;10.20;;;;;;;12.38;87.63;98651.09;5005623;28;20191;-88
2022/04/17 04:25:29;;;;;;;17.43;10.43;;;;;;;12.00;90.18;98568.13;5017590;23;20235;-90
2022/04/17 04:30:38;;;;;;;13.00;10.07;;;;;;;11.44;96.73;98500.72;4994218;28;20238;-87
2022/04/17 04:33:04;;;;;;;14.47;10.57;;;;;;;13.77;97.41;98876.31;4996117;28;20812;-88
2022/04/17 04:35:29;;;;;;;16.10;10.70;;;;;;;13.99;100.00;98944.66;4987481;28;20258;-86
2022/04/17 04:38:00;;;;;;;16.10;11.33;;;;;;;10.00;100.00;98280.81;5003896;28;20164;-87
2022/04/17 04:40:26;;;;;;;15.87;11.47;;;;;;;12.56;100.00;98734.44;4991694;28;20184;-87
2022/04/17 04:42:59;;;;;;;16.53;11.47;;;;;;;13.27;100.00;98886.16;4995426;28;20179;-88
2022/04/17 04:48:09;;;;;;;16.13;12.10;;;;;;;12.41;100.00;98790.75;4995485;28;20322;-86
2022/04/17 04:50:34;;;;;;;19.13;12.40;;;;;;;12.36;100.00;98764.41;5013545;28;20218;-86
2022/04/17 04:53:01;;;;;;;19.00;12.23;;;;;;;11.60;100.00;98654.06;4994162;28;20164;-88
2022/04/17 04:55:27;;;;;;;17.43;12.57;;;;;;;11.40;100.00;98599.44;4992464;28;20586;-86
2022/04/17 04:57:53;;;;;;;22.97;12.83;;;;;;;10.38;100.00;98436.19;4992176;28;20171;-87
2022/04/17 05:00:18;;;;;;;17.00;12.20;;;;;;;13.68;100.00;99000.75;4999997;28;20167;-87
2022/04/17 05:02:44;;;;;;;20.47;13.20;;;;;;;12.42;100.00;98786.53;4992285;28;20179;-87
2022/04/17 05:05:10;;;;;;;18.00;13.03;;;;;;;13.81;100.00;98990.91;4990990;28;20171;-86
2022/04/17 05:07:36;;;;;;;19.07;14.53;;;;;;;12.31;100.00;98765.09;4996607;28;20180;-87
2022/04/17 05:10:01;;;;;;;20.53;13.73;;;;;;;12.35;100.00;98788.06;4982000;28;20217;-88
2022/04/17 05:12:30;;;;;;;18.73;13.23;;;;;;;12.19;100.00;98760.56;4981771;28;20215;-86
2022/04/17 05:14:55;;;;;;;19.57;13.93;;;;;;;11.50;100.00;98683.38;4981885;28;20262;-87
2022/04/17 05:17:21;;;;;;;17.80;12.90;;;;;;;13.16;100.00;98932.47;4981936;28;20219;-85
2022/04/17 05:19:46;;;;;;;19.20;13.63;;;;;;;10.87;100.00;98576.00;4997346;28;20172;-85
2022/04/17 05:22:16;;;;;;;18.80;13.60;;;;;;;12.06;100.00;98765.28;5001236;28;20537;-87
2022/04/17 05:24:44;;;;;;;19.43;13.87;;;;;;;11.85;100.00;98730.03;4990247;28;20295;-87
2022/04/17 05:27:12;;;;;;;20.83;14.87;;;;;;;13.59;100.00;99020.06;4992383;28;20171;-86
2022/04/17 05:29:38;;;;;;;22.10;14.57;;;;;;;12.22;100.00;98792.78;4996828;28;20258;-86
2022/04/17 05:32:04;;;;;;;22.60;16.00;;;;;;;12.41;100.00;98838.97;4981272;28;20179;-86
2022/04/17 05:34:29;;;;;;;21.50;15.60;;;;;;;12.73;100.00;98884.72;4984896;28;20171;-86
2022/04/17 05:36:55;;;;;;;21.47;15.87;;;;;;;10.65;100.00;98534.03;4990253;28;20191;-86
2022/04/17 05:39:20;;;;;;;23.30;15.57;;;;;;;10.40;100.00;98528.16;4982165;28;20175;-86
2022/04/17 05:41:46;;;;;;;28.83;21.10;;;;;;;12.21;100.00;98850.28;4984545;28;20179;-88
2022/04/17 05:44:12;;;;;;;27.63;19.70;;;;;;;10.79;100.00;98628.09;4981735;28;20184;-89
2022/04/17 05:46:41;;;;;;;25.77;16.87;;;;;;;11.30;100.00;98757.09;4999569;28;20176;-88
2022/04/17 05:49:07;;;;;;;25.47;16.97;;;;;;;9.70;100.00;98467.78;4993412;28;20195;-88
2022/04/17 05:51:36;;;;;;;28.93;19.47;;;;;;;10.51;100.00;98562.25;5010497;28;20226;-90
2022/04/17 05:54:07;;;;;;;36.63;23.63;;;;;;;13.08;100.00;99008.50;4989402;28;20180;-88
2022/04/17 05:56:33;;;;;;;31.27;20.77;;;;;;;8.91;100.00;98317.91;4994787;28;20174;-88
2022/04/17 05:59:00;;;;;;;32.03;20.60;;;;;;;13.10;100.00;99036.50;4996201;28;20171;-87
2022/04/17 06:01:26;;;;;;;27.53;18.33;;;;;;;11.15;100.00;98691.63;4995551;28;20262;-89
2022/04/17 06:03:51;;;;;;;30.33;19.33;;;;;;;9.85;100.00;98447.19;4996412;28;20701;-88
2022/04/17 06:06:18;;;;;;;25.30;17.67;;;;;;;10.31;100.00;98530.41;5035470;28;20228;-89
2022/04/17 06:08:45;;;;;;;23.40;16.70;;;;;;;8.65;100.00;98299.38;5043212;28;20189;-88
2022/04/17 06:11:10;;;;;;;22.33;16.23;;;;;;;12.50;100.00;98959.41;5008490;28;20241;-88
2022/04/17 06:13:36;;;;;;;21.73;15.87;;;;;;;9.98;100.00;98490.59;5017977;28;20642;-88
2022/04/17 06:16:01;;;;;;;23.33;16.07;;;;;;;13.15;100.00;99023.09;5037243;28;20213;-91
2022/04/17 06:18:27;;;;;;;26.77;18.63;;;;;;;10.99;100.00;98633.72;5037195;28;20221;-87
2022/04/17 06:20:52;;;;;;;26.93;16.37;;;;;;;12.00;100.00;98760.03;5023638;28;20642;-87
2022/04/17 06:23:18;;;;;;;20.63;14.67;;;;;;;9.87;100.00;98402.59;5039282;28;20177;-87
2022/04/17 06:25:43;;;;;;;22.27;15.27;;;;;;;11.54;100.00;98718.13;5039273;28;20789;-89
2022/04/17 06:28:09;;;;;;;26.30;16.83;;;;;;;9.36;100.00;98411.97;5023309;28;20222;-90
2022/04/17 06:30:34;;;;;;;23.03;15.77;;;;;;;10.42;100.00;98546.78;5009200;28;20271;-88
2022/04/17 06:33:00;;;;;;;24.80;15.97;;;;;;;11.63;100.00;98765.69;5026818;28;20170;-88
2022/04/17 06:35:25;;;;;;;24.30;16.47;;;;;;;10.44;100.00;98621.03;5007541;28;20177;-88
2022/04/17 06:37:58;;;;;;;27.10;16.77;;;;;;;8.94;100.00;98357.53;5018484;28;20197;-88
2022/04/17 06:40:25;;;;;;;25.43;17.07;;;;;;;10.71;100.00;98641.31;5036487;28;20661;-88
2022/04/17 06:42:53;;;;;;;26.90;18.67;;;;;;;12.67;100.00;98976.81;5045316;28;20194;-87
2022/04/17 06:45:19;;;;;;;25.37;17.40;;;;;;;12.73;100.00;99012.56;5013861;28;20171;-87
2022/04/17 06:47:45;;;;;;;28.27;17.03;;;;;;;10.18;100.00;98557.00;5007148;28;20171;-88
2022/04/17 06:50:11;;;;;;;26.00;17.70;;;;;;;12.93;100.00;99010.59;4999561;28;20195;-86
2022/04/17 06:52:37;;;;;;;30.03;18.80;;;;;;;13.22;100.00;99022.44;4993194;28;20167;-88
2022/04/17 06:55:03;;;;;;;28.43;17.97;;;;;;;11.86;100.00;98784.16;4998515;28;20170;-87
2022/04/17 06:57:33;;;;;;;27.77;18.37;;;;;;;11.12;100.00;98684.78;5011041;28;20179;-88
2022/04/17 07:00:10;;;;;;;27.20;18.70;;;;;;;10.65;100.00;98642.84;5001134;28;20168;-89
2022/04/17 07:02:40;;;;;;;28.70;19.60;;;;;;;8.86;100.00;98342.13;5004362;28;20308;-88
2022/04/17 07:05:06;;;;;;;28.93;19.87;;;;;;;8.73;100.00;98333.31;5000794;28;20191;-89
2022/04/17 07:07:33;;;;;;;30.60;19.80;;;;;;;11.94;100.00;98890.09;5016353;28;20217;-87
2022/04/17 07:09:59;;;;;;;32.23;21.00;;;;;;;9.61;100.00;98496.97;5018961;28;20225;-88
2022/04/17 07:12:29;;;;;;;32.90;21.20;;;;;;;12.49;100.00;98999.16;5006175;28;20615;-88
2022/04/17 07:14:54;;;;;;;34.53;21.80;;;;;;;12.61;100.00;99029.13;5026834;28;20201;-88
2022/04/17 07:17:20;;;;;;;33.70;21.87;;;;;;;9.06;100.00;98362.97;5007076;28;20249;-88
2022/04/17 07:19:46;;;;;;;30.77;20.67;;;;;;;10.63;100.00;98615.75;5006081;28;20194;-89
2022/04/17 07:22:13;;;;;;;35.47;21.60;;;;;;;9.75;100.00;98505.88;5006744;28;20192;-88
2022/04/17 07:24:43;;;;;;;30.73;20.97;;;;;;;10.81;100.00;98712.53;5003522;28;20218;-88
2022/04/17 07:27:11;;;;;;;32.10;21.20;;;;;;;12.85;100.00;99040.00;5021800;28;20183;-89
2022/04/17 07:29:38;;;;;;;30.03;21.10;;;;;;;12.33;100.00;98895.47;5004346;28;20709;-89
2022/04/17 07:32:08;;;;;;;32.87;21.17;;;;;;;10.13;100.00;98527.34;5021098;28;20174;-88
2022/04/17 07:34:33;;;;;;;32.30;20.43;;;;;;;10.87;100.00;98667.16;5004374;28;20720;-89
2022/04/17 07:36:59;;;;;;;32.07;21.10;;;;;;;9.49;100.00;98473.03;5005380;28;20178;-89
2022/04/17 07:39:24;;;;;;;46.73;30.00;;;;;;;13.01;100.00;99067.56;5001406;28;20238;-88
2022/04/17 07:41:50;;;;;;;35.57;23.40;;;;;;;9.95;100.00;98568.00;4998005;28;20329;-87
2022/04/17 07:44:15;;;;;;;39.53;25.17;;;;;;;11.35;100.00;98791.03;5001878;28;20564;-85
2022/04/17 07:46:42;;;;;;;31.63;21.40;;;;;;;11.57;100.00;98801.84;5006739;28;20244;-89
2022/04/17 07:49:08;;;;;;;32.20;21.43;;;;;;;12.41;100.00;98940.53;5006423;28;20202;-90
2022/04/17 07:51:34;;;;;;;30.17;20.80;;;;;;;13.16;100.00;99073.09;5010867;28;20183;-89
2022/04/17 07:54:00;;;;;;;31.37;21.77;;;;;;;12.94;100.00;99060.56;5024374;28;20179;-91
2022/04/17 07:56:25;;;;;;;36.57;22.83;;;;;;;11.63;100.00;98770.75;5004278;28;20183;-87
2022/04/17 07:58:51;;;;;;;35.23;23.23;;;;;;;11.07;100.00;98639.91;5001938;28;20172;-87
2022/04/17 08:01:17;;;;;;;32.33;21.47;;;;;;;12.18;100.00;98822.28;5002937;28;20171;-88
2022/04/17 08:03:46;;;;;;;35.57;21.60;;;;;;;12.46;100.00;98836.59;5003511;28;20247;-88
2022/04/17 08:06:17;;;;;;;32.83;21.77;;;;;;;11.37;100.00;98617.09;5017260;28;20268;-88
2022/04/17 08:08:44;;;;;;;33.73;21.07;;;;;;;10.63;100.00;98492.59;5000201;28;20159;-88
2022/04/17 08:11:10;;;;;;;35.37;22.83;;;;;;;10.80;100.00;98515.84;4999454;28;20230;-88
2022/04/17 08:13:36;;;;;;;38.83;21.90;;;;;;;13.88;100.00;99007.19;5013849;28;20204;-91
2022/04/17 08:16:04;;;;;;;33.20;20.73;;;;;;;11.17;100.00;98569.28;4982296;28;20534;-90
2022/04/17 08:18:31;;;;;;;29.43;20.13;;;;;;;9.98;100.00;98358.28;4980113;28;20180;-88
2022/04/17 08:20:56;;;;;;;30.10;21.67;;;;;;;9.75;100.00;98339.91;4981900;28;20199;-87
2022/04/17 08:23:23;;;;;;;29.37;21.63;;;;;;;11.86;100.00;98706.41;4996803;28;20247;-88
2022/04/17 08:25:50;;;;;;;33.53;23.33;;;;;;;13.64;100.00;98999.81;5002460;28;20286;-89
2022/04/17 08:28:15;;;;;;;31.20;21.23;;;;;;;12.86;100.00;98859.66;5002787;28;20155;-88
2022/04/17 08:30:41;;;;;;;32.50;21.77;;;;;;;9.63;100.00;98319.34;5000579;28;20289;-89
2022/04/17 08:33:08;;;;;;;29.47;21.47;;;;;;;11.54;100.00;98599.00;5002656;28;20252;-87
2022/04/17 08:35:34;;;;;;;32.37;21.73;;;;;;;13.75;100.00;99030.59;5001181;28;20234;-87
2022/04/17 08:38:00;;;;;;;31.93;22.40;;;;;;;11.95;100.00;98705.78;5000528;28;20191;-88
2022/04/17 08:40:27;;;;;;;34.37;22.80;;;;;;;10.15;100.00;98411.91;4998454;28;20607;-87
2022/04/17 08:42:57;;;;;;;32.30;22.57;;;;;;;10.18;100.00;98401.88;4997912;28;20562;-87
2022/04/17 08:45:23;;;;;;;33.50;22.97;;;;;;;11.65;100.00;98662.66;4999054;28;20183;-88
2022/04/17 08:47:53;;;;;;;33.23;23.00;;;;;;;13.69;100.00;98999.91;5004004;28;20168;-89
2022/04/17 08:50:20;;;;;;;32.33;23.17;;;;;;;11.55;100.00;98615.06;4987013;28;20199;-88
2022/04/17 08:52:48;;;;;;;32.50;22.63;;;;;;;11.36;100.00;98595.97;4999066;28;20198;-87
2022/04/17 08:55:15;;;;;;;32.13;22.27;;;;;;;13.91;100.00;99003.03;5016015;28;20163;-86
2022/04/17 08:57:41;;;;;;;34.50;22.50;;;;;;;11.04;100.00;98476.00;5000271;28;20171;-87
2022/04/17 09:00:13;;;;;;;35.40;23.73;;;;;;;11.49;100.00;98544.78;5050278;23;20198;-89
2022/04/17 09:02:38;;;;;;;33.73;20.50;;;;;;;12.62;100.00;98751.53;4996918;28;20242;-88
2022/04/17 09:05:07;;;;;;;29.77;21.20;;;;;;;10.80;100.00;98434.84;4992679;28;20196;-88
2022/04/17 09:07:40;;;;;;;34.53;23.60;;;;;;;11.91;100.00;98617.75;4986861;28;20203;-86
2022/04/17 09:10:07;;;;;;;34.27;23.50;;;;;;;10.70;100.00;98415.19;5002914;28;20275;-88
2022/04/17 09:12:32;;;;;;;29.20;20.27;;;;;;;11.07;100.00;98483.69;4983966;28;20465;-87
2022/04/17 09:14:59;;;;;;;29.17;20.33;;;;;;;13.37;100.00;98890.66;4988571;28;20175;-87
2022/04/17 09:17:34;;;;;;;26.73;19.50;;;;;;;10.32;100.00;98348.34;5001040;28;20171;-88
2022/04/17 09:20:01;;;;;;;28.97;19.60;;;;;;;12.43;100.00;98766.28;4984800;28;20185;-88
2022/04/17 09:22:49;;;;;;;31.40;21.50;;;;;;;13.85;100.00;98981.66;4987520;28;20187;-88
2022/04/17 09:25:16;;;;;;;30.63;19.87;;;;;;;13.91;100.00;98961.44;4990113;28;20160;-90
2022/04/17 09:27:57;;;;;;;28.33;17.47;;;;;;;13.83;100.00;98978.22;5005393;28;20179;-88
2022/04/17 09:30:26;;;;;;;25.83;17.13;;;;;;;11.41;100.00;98637.50;5006964;28;20183;-89
2022/04/17 09:32:53;;;;;;;26.27;17.00;;;;;;;11.44;100.00;98668.00;4992453;28;20179;-90
2022/04/17 09:35:25;;;;;;;26.27;17.23;;;;;;;11.25;100.00;98615.06;4992391;28;20172;-94
2022/04/17 09:38:02;;;;;;;26.07;16.63;;;;;;;10.07;100.00;98388.88;4993159;28;20176;-89
2022/04/17 09:40:31;;;;;;;25.50;16.87;;;;;;;10.09;100.00;98359.44;4993914;28;20234;-88
2022/04/17 09:43:36;;;;;;;21.93;16.00;;;;;;;12.55;100.00;98795.34;4993928;28;20170;-90
2022/04/17 09:46:21;;;;;;;23.10;16.17;;;;;;;12.30;100.00;98754.09;5170443;23;20259;-92
2022/04/17 09:48:57;;;;;;;22.87;15.07;;;;;;;11.76;100.00;98674.84;4975371;28;20176;-89
2022/04/17 09:54:18;;;;;;;24.87;15.90;;;;;;;11.94;100.00;98691.38;4994758;28;20203;-90
2022/04/17 09:56:45;;;;;;;26.30;17.27;;;;;;;11.83;100.00;98693.63;4989433;28;20237;-88
2022/04/17 09:59:17;;;;;;;25.60;16.37;;;;;;;10.77;100.00;98512.41;4988074;28;20251;-89
2022/04/17 10:01:53;;;;;;;23.87;15.90;;;;;;;10.93;100.00;98535.63;4988578;28;20176;-87
2022/04/17 10:04:22;;;;;;;24.23;15.97;;;;;;;10.35;100.00;98400.69;4979849;28;20267;-90
2022/04/17 10:06:53;;;;;;;28.27;17.40;;;;;;;9.37;100.00;98230.16;4988475;28;20184;-88
2022/04/17 10:09:20;;;;;;;33.47;21.30;;;;;;;10.28;100.00;98381.09;4990100;28;20262;-90
2022/04/17 10:11:49;;;;;;;23.07;16.50;;;;;;;9.71;100.00;98307.78;4987525;28;20176;-88
2022/04/17 10:14:16;;;;;;;21.40;15.03;;;;;;;10.95;100.00;98523.03;4986853;28;20199;-88
2022/04/17 10:16:43;;;;;;;17.40;11.80;;;;;;;9.73;100.00;98313.75;4987763;28;20187;-89
2022/04/17 10:19:24;;;;;;;17.53;11.77;;;;;;;12.57;100.00;98854.66;4987820;28;20184;-87
2022/04/17 10:21:51;;;;;;;17.90;11.87;;;;;;;12.68;100.00;98858.34;4986203;28;20214;-87
2022/04/17 10:24:19;;;;;;;15.43;10.97;;;;;;;10.84;100.00;98590.22;4985854;28;20193;-87
2022/04/17 10:26:53;;;;;;;15.80;10.10;;;;;;;10.46;100.00;98501.41;4986817;28;20176;-88
2022/04/17 10:30:02;;;;;;;16.13;10.40;;;;;;;12.67;100.00;98930.25;4984993;28;20222;-89
2022/04/17 10:32:33;;;;;;;15.77;10.90;;;;;;;12.77;100.00;98909.38;4969857;28;20180;-88
2022/04/17 10:35:37;;;;;;;15.40;10.57;;;;;;;12.75;100.00;98905.91;5005670;28;20258;-88
2022/04/17 10:38:22;;;;;;;14.50;10.40;;;;;;;11.98;100.00;98764.19;4972930;28;20199;-88
2022/04/17 10:41:01;;;;;;;13.87;9.97;;;;;;;11.13;100.00;98670.44;4989584;28;20171;-88
2022/04/17 10:43:42;;;;;;;12.57;8.33;;;;;;;12.57;100.00;98925.75;5006047;28;20239;-90
2022/04/17 10:46:43;;;;;;;10.70;7.67;;;;;;;11.47;100.00;98718.78;5007815;28;20294;-91
2022/04/17 10:49:12;;;;;;;10.20;7.93;;;;;;;10.22;100.00;98514.97;4990861;28;20221;-89
2022/04/17 10:51:38;;;;;;;11.97;7.77;;;;;;;10.14;100.00;98529.03;4991070;28;20195;-89
2022/04/17 10:54:13;;;;;;;11.97;8.27;;;;;;;10.06;100.00;98554.91;5007713;28;20191;-88
2022/04/17 10:56:54;;;;;;;11.47;7.37;;;;;;;12.37;100.00;98926.03;4991147;28;20189;-88
2022/04/17 10:59:28;;;;;;;12.30;8.10;;;;;;;12.39;100.00;98933.69;4989657;28;20213;-88
2022/04/17 11:01:59;;;;;;;10.07;6.97;;;;;;;10.93;100.00;98712.88;5008396;28;20210;-88
2022/04/17 11:04:54;;;;;;;10.33;6.70;;;;;;;10.62;100.00;98723.75;4995082;28;20233;-87
2022/04/17 11:07:20;;;;;;;9.40;6.43;;;;;;;12.01;100.00;98942.72;4998133;28;20158;-86
2022/04/17 11:09:47;;;;;;;9.27;6.47;;;;;;;8.26;100.00;98298.00;4997365;28;20250;-88
2022/04/17 11:12:18;;;;;;;10.87;6.73;;;;;;;12.05;100.00;98948.75;5000017;28;20171;-87
2022/04/17 11:15:10;;;;;;;8.90;6.47;;;;;;;8.48;100.00;98360.16;5000850;28;20190;-89
2022/04/17 11:17:39;;;;;;;9.90;6.80;;;;;;;9.41;100.00;98540.13;4944406;29;20196;-90
2022/04/17 11:20:07;;;;;;;10.23;6.30;;;;;;;8.18;100.00;98309.50;4959498;28;20204;-88
2022/04/17 11:22:52;;;;;;;10.17;7.20;;;;;;;8.21;100.00;98380.19;4911273;29;20266;-88
2022/04/17 11:25:18;;;;;;;11.77;7.27;;;;;;;7.88;100.00;98364.69;4910933;29;20194;-88
2022/04/17 11:27:53;;;;;;;10.77;7.40;;;;;;;8.87;100.00;98503.69;4907981;29;20183;-88
2022/04/17 11:30:18;;;;;;;10.00;7.00;;;;;;;11.40;100.00;98933.97;4901349;29;20202;-88
2022/04/17 11:32:49;;;;;;;10.57;7.23;;;;;;;11.13;100.00;98934.75;4906429;29;20850;-88
2022/04/17 11:35:18;;;;;;;10.13;7.13;;;;;;;9.81;100.00;98700.66;4890612;29;20198;-88
2022/04/17 11:38:01;;;;;;;10.73;7.00;;;;;;;10.85;100.00;98921.94;4903815;29;20225;-88
2022/04/17 11:40:30;;;;;;;12.27;7.33;;;;;;;10.26;100.00;98822.84;4907790;29;20238;-88